CYVM/YVM METAR and TAF weather

Enter ICAO airport designator
Station Type Date Time Source
CYVM METAR 2020/06/06 14:00 UTC NOAA

CYVM 061400Z 04008KT 15SM FEW009 OVC120 M01/M02 A3001 RMK SF1AC7 SLP163


Station Type Date Time Source
CYVM Decoded METAR 2020/06/06 14:00 UTC NOAA

Broughton Island Airport, Canada (CYVM) 67-33N 064-02W
Jun 06, 2020 - 10:00 AM EDT / 2020.06.06 1400 UTC
Wind: from the NE (040 degrees) at 9 MPH (8 KT):0
Visibility: 15 mile(s):0
Sky conditions: overcast
Temperature: 30 F (-1 C)
Windchill: 21 F (-6 C):1
Dew Point: 28 F (-2 C)
Relative Humidity: 92%
Pressure (altimeter): 30.01 in. Hg (1016 hPa)
ob: CYVM 061400Z 04008KT 15SM FEW009 OVC120 M01/M02 A3001 RMK SF1AC7 SLP163
cycle: 14

Station Type Date Time Source
CYVM TAF 2020/06/06 13:39 UTC NOAA

TAF CYVM 061238Z 0613/0701 03007KT P6SM SCT008 BKN070 OVC090
TEMPO 0613/0615 5SM -SN BKN008 OVC070
BECMG 0613/0615 01010KT
FM061500 01010KT P6SM SCT020 OVC060
TEMPO 0615/0701 5SM -SN BKN020 OVC060
RMK NXT FCST BY 061900Z

Example: see airport list